This is the latest recevied weather packets stored in our database for station/object DG8SBT-10. If no packets are shown the sender has not sent any weather packets the latest 10 day(s).
| Time | Temp. | Humidity | Pressure | Rain* | Wind** | Luminosity | Snow |
|---|---|---|---|---|---|---|---|
| 1788332647 | 21.11° C | 49% | 1023.5 hPa | - | - | - | - |
| 1788331747 | 21.11° C | 48% | 1023.4 hPa | - | - | - | - |
| 1788330847 | 22.22° C | 47% | 1023.3 hPa | - | - | - | - |
| 1788329947 | 19.44° C | 52% | 1023.5 hPa | - | - | - | - |
| 1788329047 | 19.44° C | 52% | 1023.5 hPa | - | - | - | - |
| 1788328147 | 19.44° C | 55% | 1023.5 hPa | - | - | - | - |
| 1788327246 | 19.44° C | 53% | 1023.4 hPa | - | - | - | - |
| 1788326347 | 19.44° C | 53% | 1023.5 hPa | - | - | - | - |
| 1788324546 | 18.89° C | 53% | 1023.5 hPa | - | - | - | - |
| 1788302043 | 23.89° C | 44% | 1023.7 hPa | - | - | - | - |
| 1788301143 | 22.22° C | 47% | 1023.8 hPa | - | - | - | - |
| 1788300243 | 22.78° C | 45% | 1023.7 hPa | - | - | - | - |
| 1788298443 | 23.89° C | 43% | 1023.8 hPa | - | - | - | - |
| 1788297543 | 23.89° C | 43% | 1023.6 hPa | - | - | - | - |
| 1788296643 | 22.78° C | 45% | 1023.6 hPa | - | - | - | - |
| 1788295743 | 22.78° C | 46% | 1023.6 hPa | - | - | - | - |
| 1788294843 | 23.33° C | 44% | 1023.5 hPa | - | - | - | - |
| 1788293943 | 23.33° C | 45% | 1023.4 hPa | - | - | - | - |
| 1788293042 | 23.33° C | 44% | 1023.4 hPa | - | - | - | - |
| 1788291242 | 24.44° C | 41% | 1023.3 hPa | - | - | - | - |
| 1788290342 | 24.44° C | 41% | 1023.3 hPa | - | - | - | - |
| 1788289442 | 25° C | 40% | 1023.2 hPa | - | - | - | - |
| 1788287642 | 25° C | 39% | 1022.9 hPa | - | - | - | - |
| 1788286742 | 26.11° C | 37% | 1022.7 hPa | - | - | - | - |
| 1788285842 | 27.22° C | 36% | 1022.4 hPa | - | - | - | - |
* Rain since midnight (hover to see other rain measurements)
** Current wind speed in m/s (hover to see current wind gust speed)